Time;durP1;ratioP1;P1;durP2;ratioP2;P2;SDS_P1;SDS_P2;PMS_P1;PMS_P2;Temp;Humidity;BMP_temperature;BMP_pressure;BME280_temperature;BME280_humidity;BME280_pressure;Samples;Min_cycle;Max_cycle;Signal;HPM_P1;HPM_P2
2023/05/29 00:01:13;;;;;;;28.52;5.10;;;;;;;;;;5010638;28;20032;-73
2023/05/29 00:03:39;;;;;;;31.45;4.93;;;;;;;;;;5011401;28;20033;-73
2023/05/29 00:06:05;;;;;;;28.48;4.55;;;;;;;;;;5011830;28;20022;-73
2023/05/29 00:08:32;;;;;;;27.27;5.13;;;;;;;;;;5012650;28;20022;-72
2023/05/29 00:10:58;;;;;;;26.30;3.92;;;;;;;;;;5011390;28;20072;-72
2023/05/29 00:13:24;;;;;;;24.92;4.10;;;;;;;;;;5011458;28;20061;-72
2023/05/29 00:15:50;;;;;;;18.73;3.78;;;;;;;;;;5011519;28;20022;-72
2023/05/29 00:18:16;;;;;;;25.55;4.43;;;;;;;;;;5012199;28;20033;-73
2023/05/29 00:20:42;;;;;;;23.90;4.35;;;;;;;;;;5012688;28;20506;-73
2023/05/29 00:23:09;;;;;;;28.88;4.38;;;;;;;;;;5015310;28;20030;-72
2023/05/29 00:25:35;;;;;;;27.70;4.28;;;;;;;;;;5014010;28;20088;-73
2023/05/29 00:28:01;;;;;;;30.92;5.05;;;;;;;;;;5011416;28;20026;-72
2023/05/29 00:30:27;;;;;;;28.75;4.88;;;;;;;;;;5011478;28;20029;-73
2023/05/29 00:32:53;;;;;;;21.90;3.50;;;;;;;;;;5011018;28;20030;-71
2023/05/29 00:35:20;;;;;;;22.95;3.85;;;;;;;;;;5012330;28;20034;-73
2023/05/29 00:37:46;;;;;;;23.80;3.83;;;;;;;;;;5015844;28;20080;-73
2023/05/29 00:40:12;;;;;;;29.27;4.38;;;;;;;;;;5016020;28;20075;-72
2023/05/29 00:42:38;;;;;;;22.50;4.05;;;;;;;;;;5015120;28;20022;-72
2023/05/29 00:45:04;;;;;;;30.75;4.70;;;;;;;;;;5015624;28;20053;-72
2023/05/29 00:47:30;;;;;;;25.80;4.15;;;;;;;;;;5015307;28;20028;-73
2023/05/29 00:49:57;;;;;;;30.00;4.70;;;;;;;;;;5015604;28;20025;-72
2023/05/29 00:52:24;;;;;;;20.13;3.97;;;;;;;;;;5015503;28;20022;-74
2023/05/29 00:54:50;;;;;;;29.60;5.15;;;;;;;;;;5030854;28;20056;-74
2023/05/29 00:57:17;;;;;;;24.85;4.38;;;;;;;;;;5015192;28;20539;-73
2023/05/29 00:59:44;;;;;;;24.75;4.40;;;;;;;;;;5014722;28;20072;-73
2023/05/29 01:02:11;;;;;;;22.15;3.95;;;;;;;;;;5014546;28;20052;-73
2023/05/29 01:04:37;;;;;;;34.60;5.00;;;;;;;;;;5015150;28;20049;-73
2023/05/29 01:07:03;;;;;;;32.22;4.70;;;;;;;;;;5013770;28;20018;-73
2023/05/29 01:09:30;;;;;;;26.67;4.03;;;;;;;;;;5012324;28;20038;-73
2023/05/29 01:12:15;;;;;;;27.13;4.00;;;;;;;;;;5012865;28;20442;-72
2023/05/29 01:14:41;;;;;;;;;;;;;;;;;;5013472;28;20037;-73
2023/05/29 01:17:16;;;;;;;26.10;4.28;;;;;;;;;;5013360;28;19906;-73
2023/05/29 01:19:53;;;;;;;21.15;3.60;;;;;;;;;;5013349;28;20038;-72
2023/05/29 01:22:19;;;;;;;23.33;3.92;;;;;;;;;;5012233;28;20037;-72
2023/05/29 01:25:03;;;;;;;24.20;4.20;;;;;;;;;;5013549;28;20022;-73
2023/05/29 01:27:30;;;;;;;20.10;3.72;;;;;;;;;;5013588;28;20101;-72
2023/05/29 01:29:57;;;;;;;21.40;4.78;;;;;;;;;;5013726;28;20054;-72
2023/05/29 01:32:24;;;;;;;22.33;3.80;;;;;;;;;;5012546;28;20036;-73
2023/05/29 01:34:50;;;;;;;31.25;4.72;;;;;;;;;;5012887;28;20478;-73
2023/05/29 01:37:16;;;;;;;28.58;4.40;;;;;;;;;;5013491;28;20034;-72
2023/05/29 01:39:43;;;;;;;32.55;5.15;;;;;;;;;;5013630;28;20022;-71
2023/05/29 01:42:09;;;;;;;22.33;3.58;;;;;;;;;;5012281;28;20459;-74
2023/05/29 01:44:36;;;;;;;33.80;4.50;;;;;;;;;;5013034;28;20026;-73
2023/05/29 01:47:03;;;;;;;27.13;4.18;;;;;;;;;;5011229;28;20026;-72
2023/05/29 01:49:29;;;;;;;23.90;4.55;;;;;;;;;;5012676;28;20033;-73
2023/05/29 01:51:55;;;;;;;22.83;3.90;;;;;;;;;;5011979;28;20025;-73
2023/05/29 01:54:21;;;;;;;25.02;4.43;;;;;;;;;;5012607;28;20486;-74
2023/05/29 01:56:48;;;;;;;28.13;5.05;;;;;;;;;;5012875;28;20443;-72
2023/05/29 01:59:14;;;;;;;29.42;4.20;;;;;;;;;;5012410;28;20033;-73
2023/05/29 02:01:40;;;;;;;38.30;5.13;;;;;;;;;;5012249;28;20113;-72
2023/05/29 02:04:06;;;;;;;22.70;4.05;;;;;;;;;;5012350;28;20367;-73
2023/05/29 02:06:33;;;;;;;26.52;4.35;;;;;;;;;;5012921;28;20076;-72
2023/05/29 02:08:59;;;;;;;26.42;5.15;;;;;;;;;;5012025;28;20021;-72
2023/05/29 02:11:28;;;;;;;25.02;4.28;;;;;;;;;;5012646;28;20083;-74
2023/05/29 02:13:54;;;;;;;24.52;3.58;;;;;;;;;;5011144;28;20109;-72
2023/05/29 02:16:20;;;;;;;23.20;4.00;;;;;;;;;;5012712;28;20034;-72
2023/05/29 02:18:47;;;;;;;21.77;4.03;;;;;;;;;;5009934;28;20026;-73
2023/05/29 02:21:13;;;;;;;19.73;3.88;;;;;;;;;;5012611;28;20026;-73
2023/05/29 02:23:39;;;;;;;25.02;4.07;;;;;;;;;;5011637;28;20449;-72
2023/05/29 02:26:05;;;;;;;26.42;4.20;;;;;;;;;;5012738;28;20108;-72
2023/05/29 02:28:31;;;;;;;29.95;4.60;;;;;;;;;;5012721;28;20032;-72
2023/05/29 02:30:57;;;;;;;39.28;5.15;;;;;;;;;;5011581;28;20026;-71
2023/05/29 02:33:23;;;;;;;32.90;4.53;;;;;;;;;;5011424;28;20034;-73
2023/05/29 02:35:49;;;;;;;26.60;4.05;;;;;;;;;;5012503;28;20040;-73
2023/05/29 02:38:15;;;;;;;29.23;4.88;;;;;;;;;;5012039;28;20391;-75
2023/05/29 02:40:41;;;;;;;17.33;3.97;;;;;;;;;;5011787;28;20112;-74
2023/05/29 02:43:08;;;;;;;29.15;5.13;;;;;;;;;;5011440;28;20048;-73
2023/05/29 02:45:34;;;;;;;30.02;4.07;;;;;;;;;;5013262;28;20045;-73
2023/05/29 02:48:00;;;;;;;32.38;4.22;;;;;;;;;;5013658;28;20022;-73
2023/05/29 02:50:26;;;;;;;30.23;4.20;;;;;;;;;;5012480;28;20517;-73
2023/05/29 02:52:52;;;;;;;31.63;4.55;;;;;;;;;;5011888;28;20026;-73
2023/05/29 02:55:18;;;;;;;29.33;4.85;;;;;;;;;;5012625;28;20394;-72
2023/05/29 02:57:44;;;;;;;21.77;4.60;;;;;;;;;;5012287;28;20124;-72
2023/05/29 03:00:11;;;;;;;25.15;3.92;;;;;;;;;;5012267;28;20486;-72
2023/05/29 03:02:37;;;;;;;25.20;4.82;;;;;;;;;;5011558;28;20395;-72
2023/05/29 03:05:03;;;;;;;31.50;5.95;;;;;;;;;;5012309;28;20025;-73
2023/05/29 03:07:29;;;;;;;40.63;6.13;;;;;;;;;;5012308;28;20036;-73
2023/05/29 03:09:56;;;;;;;29.52;5.25;;;;;;;;;;5012192;28;20034;-72
2023/05/29 03:12:22;;;;;;;33.17;4.15;;;;;;;;;;5011574;28;20438;-72
2023/05/29 03:14:48;;;;;;;36.00;4.68;;;;;;;;;;5011897;28;20060;-73
2023/05/29 03:17:14;;;;;;;27.65;4.00;;;;;;;;;;5012214;28;20101;-72
2023/05/29 03:19:40;;;;;;;34.00;4.90;;;;;;;;;;5012034;28;20033;-72
2023/05/29 03:22:06;;;;;;;30.83;5.20;;;;;;;;;;5011588;28;20098;-72
2023/05/29 03:24:34;;;;;;;25.88;4.65;;;;;;;;;;5011974;28;20483;-72
2023/05/29 03:27:02;;;;;;;23.67;4.50;;;;;;;;;;5010837;28;20037;-72
2023/05/29 03:29:28;;;;;;;33.70;5.03;;;;;;;;;;5013462;28;20258;-72
2023/05/29 03:31:54;;;;;;;36.00;5.32;;;;;;;;;;5013441;28;20026;-73
2023/05/29 03:34:20;;;;;;;28.25;5.07;;;;;;;;;;5013634;28;20104;-73
2023/05/29 03:36:46;;;;;;;34.25;5.07;;;;;;;;;;5012101;28;20076;-71
2023/05/29 03:39:12;;;;;;;35.22;5.22;;;;;;;;;;5011737;28;20025;-73
2023/05/29 03:41:39;;;;;;;28.55;4.18;;;;;;;;;;5013169;28;20080;-73
2023/05/29 03:44:05;;;;;;;37.22;5.43;;;;;;;;;;5011444;28;20046;-72
2023/05/29 03:46:32;;;;;;;32.75;5.70;;;;;;;;;;5012999;28;20022;-73
2023/05/29 03:48:58;;;;;;;32.33;4.68;;;;;;;;;;5011793;28;20022;-73
2023/05/29 03:51:24;;;;;;;31.35;5.22;;;;;;;;;;5012785;28;20022;-73
2023/05/29 03:53:50;;;;;;;28.73;4.65;;;;;;;;;;5013227;28;20026;-72
2023/05/29 03:56:16;;;;;;;35.63;4.95;;;;;;;;;;5013876;28;20033;-73
2023/05/29 03:58:42;;;;;;;31.00;5.38;;;;;;;;;;5014924;28;20022;-73
2023/05/29 04:01:09;;;;;;;31.88;4.97;;;;;;;;;;5013793;28;20501;-72
2023/05/29 04:03:35;;;;;;;35.15;4.97;;;;;;;;;;5013677;28;20032;-72
2023/05/29 04:06:01;;;;;;;26.00;4.47;;;;;;;;;;5014081;28;20030;-74
2023/05/29 04:08:27;;;;;;;29.65;4.97;;;;;;;;;;5013086;28;20379;-72
2023/05/29 04:10:53;;;;;;;36.80;4.78;;;;;;;;;;5014113;28;20033;-72
2023/05/29 04:13:20;;;;;;;29.25;5.20;;;;;;;;;;5014804;28;20030;-73
2023/05/29 04:15:47;;;;;;;31.95;5.47;;;;;;;;;;5016476;28;20181;-72
2023/05/29 04:18:13;;;;;;;35.17;5.20;;;;;;;;;;5016193;28;20529;-73
2023/05/29 04:20:39;;;;;;;26.45;4.68;;;;;;;;;;5016610;28;20100;-73
2023/05/29 04:23:05;;;;;;;29.33;5.43;;;;;;;;;;5016365;28;20392;-73
2023/05/29 04:25:32;;;;;;;35.00;4.93;;;;;;;;;;5017181;28;20022;-72
2023/05/29 04:28:01;;;;;;;30.27;4.60;;;;;;;;;;5015582;28;20029;-72
2023/05/29 04:30:28;;;;;;;36.05;5.32;;;;;;;;;;5015625;28;20045;-73
2023/05/29 04:32:54;;;;;;;30.67;5.93;;;;;;;;;;5015381;28;20483;-72
2023/05/29 04:35:21;;;;;;;31.42;4.88;;;;;;;;;;5016023;28;20033;-76
2023/05/29 04:37:47;;;;;;;31.15;5.55;;;;;;;;;;5017104;28;20022;-77
2023/05/29 04:40:17;;;;;;;37.20;5.30;;;;;;;;;;5019582;28;20037;-76
2023/05/29 04:42:45;;;;;;;36.33;6.00;;;;;;;;;;5018084;28;20033;-75
2023/05/29 04:45:11;;;;;;;29.92;5.03;;;;;;;;;;5025856;28;20071;-76
2023/05/29 04:47:42;;;;;;;33.05;4.85;;;;;;;;;;5009745;28;20092;-76
2023/05/29 04:50:09;;;;;;;31.23;5.00;;;;;;;;;;5010313;28;20106;-75
2023/05/29 04:52:37;;;;;;;32.88;5.85;;;;;;;;;;5011339;28;20521;-76
2023/05/29 04:55:03;;;;;;;30.42;5.10;;;;;;;;;;5014676;28;20030;-75
2023/05/29 04:57:29;;;;;;;28.23;4.97;;;;;;;;;;5014466;28;20030;-76
2023/05/29 04:59:55;;;;;;;38.15;5.30;;;;;;;;;;5010288;28;20057;-75
2023/05/29 05:02:21;;;;;;;30.35;5.60;;;;;;;;;;5013871;28;20030;-76
2023/05/29 05:04:47;;;;;;;34.78;5.68;;;;;;;;;;5014527;28;20416;-75
2023/05/29 05:07:15;;;;;;;38.85;5.20;;;;;;;;;;5014051;28;20022;-76
2023/05/29 05:09:41;;;;;;;39.58;5.18;;;;;;;;;;5014720;28;20033;-76
2023/05/29 05:12:07;;;;;;;44.65;6.00;;;;;;;;;;5014034;28;20034;-75
2023/05/29 05:14:33;;;;;;;32.17;5.18;;;;;;;;;;5014586;28;20108;-76
2023/05/29 05:17:00;;;;;;;28.60;4.82;;;;;;;;;;5014603;28;20069;-74
2023/05/29 05:19:26;;;;;;;28.52;5.00;;;;;;;;;;5014525;28;20555;-72
2023/05/29 05:21:52;;;;;;;32.92;6.07;;;;;;;;;;5012457;28;20112;-73
2023/05/29 05:24:18;;;;;;;33.10;4.95;;;;;;;;;;5014344;28;20030;-73
2023/05/29 05:26:44;;;;;;;29.17;5.50;;;;;;;;;;5017310;28;20105;-74
2023/05/29 05:29:10;;;;;;;32.25;5.30;;;;;;;;;;5025172;28;20029;-76
2023/05/29 05:31:36;;;;;;;34.05;5.28;;;;;;;;;;5023913;28;20033;-75
2023/05/29 05:34:02;;;;;;;36.53;5.25;;;;;;;;;;5016253;28;20041;-73
2023/05/29 05:36:28;;;;;;;34.58;5.25;;;;;;;;;;5014740;28;20025;-73
2023/05/29 05:38:54;;;;;;;36.10;5.63;;;;;;;;;;5015033;28;20017;-74
2023/05/29 05:41:21;;;;;;;31.33;5.10;;;;;;;;;;5014982;28;20030;-72
2023/05/29 05:43:46;;;;;;;30.50;5.38;;;;;;;;;;5008894;28;20052;-72
2023/05/29 05:46:13;;;;;;;23.83;4.53;;;;;;;;;;5007687;28;20022;-73
2023/05/29 05:48:40;;;;;;;34.28;5.28;;;;;;;;;;5012093;28;20029;-74
2023/05/29 05:51:06;;;;;;;36.70;5.70;;;;;;;;;;5005865;28;20478;-73
2023/05/29 05:53:32;;;;;;;34.70;6.20;;;;;;;;;;5012971;28;20085;-73
2023/05/29 05:55:58;;;;;;;45.92;6.82;;;;;;;;;;5011817;28;20049;-73
2023/05/29 05:58:24;;;;;;;33.60;6.20;;;;;;;;;;5010287;28;20364;-73
2023/05/29 06:00:52;;;;;;;37.28;5.80;;;;;;;;;;5014245;28;20109;-73
2023/05/29 06:03:18;;;;;;;35.67;5.35;;;;;;;;;;5013953;28;20049;-76
2023/05/29 06:05:44;;;;;;;40.00;5.80;;;;;;;;;;5020274;28;20030;-74
2023/05/29 06:08:10;;;;;;;38.10;6.53;;;;;;;;;;5016023;28;20057;-72
2023/05/29 06:10:36;;;;;;;40.55;6.38;;;;;;;;;;5016962;28;20565;-73
2023/05/29 06:13:02;;;;;;;33.63;6.38;;;;;;;;;;5012786;28;20420;-72
2023/05/29 06:15:28;;;;;;;45.10;6.68;;;;;;;;;;5016395;28;20026;-72
2023/05/29 06:17:55;;;;;;;33.72;5.78;;;;;;;;;;5014259;28;20022;-73
2023/05/29 06:20:21;;;;;;;29.35;5.15;;;;;;;;;;5013261;28;20046;-72
2023/05/29 06:22:50;;;;;;;37.03;5.45;;;;;;;;;;5013986;28;20108;-71
2023/05/29 06:25:18;;;;;;;28.98;5.90;;;;;;;;;;5018624;28;20030;-72
2023/05/29 06:27:44;;;;;;;35.53;6.05;;;;;;;;;;5019346;28;20026;-73
2023/05/29 06:30:10;;;;;;;37.33;5.72;;;;;;;;;;5018947;28;20033;-73
2023/05/29 06:32:36;;;;;;;37.78;6.20;;;;;;;;;;5018583;28;20022;-73
2023/05/29 06:35:03;;;;;;;44.95;7.30;;;;;;;;;;5013121;28;20168;-72
2023/05/29 06:37:29;;;;;;;42.13;6.43;;;;;;;;;;5016159;28;20026;-73
2023/05/29 06:39:55;;;;;;;30.88;5.78;;;;;;;;;;5020955;28;20657;-72
2023/05/29 06:42:21;;;;;;;32.42;5.90;;;;;;;;;;5017232;28;20037;-72
2023/05/29 06:44:47;;;;;;;30.48;5.13;;;;;;;;;;5016124;28;20034;-72
2023/05/29 06:47:13;;;;;;;24.02;4.97;;;;;;;;;;5015399;28;20181;-72
2023/05/29 06:49:39;;;;;;;42.00;5.40;;;;;;;;;;5015917;28;20112;-73
2023/05/29 06:52:05;;;;;;;31.48;5.65;;;;;;;;;;5015521;28;20443;-72
2023/05/29 06:54:31;;;;;;;32.05;5.60;;;;;;;;;;5015606;28;20029;-72
2023/05/29 06:56:57;;;;;;;33.50;5.63;;;;;;;;;;5014618;28;20087;-72
2023/05/29 06:59:23;;;;;;;32.38;5.40;;;;;;;;;;5009939;28;20022;-72
2023/05/29 07:01:49;;;;;;;36.05;6.53;;;;;;;;;;5011714;28;20034;-72
2023/05/29 07:04:15;;;;;;;34.42;5.82;;;;;;;;;;5012316;28;20104;-72
2023/05/29 07:06:41;;;;;;;41.00;6.07;;;;;;;;;;5012476;28;20022;-73
2023/05/29 07:09:08;;;;;;;51.03;7.25;;;;;;;;;;5012169;28;20391;-72
2023/05/29 07:11:34;;;;;;;40.97;6.13;;;;;;;;;;5012431;28;20498;-71
2023/05/29 07:14:00;;;;;;;45.50;7.15;;;;;;;;;;5014529;28;20034;-72
2023/05/29 07:16:26;;;;;;;38.15;6.57;;;;;;;;;;5017781;28;20030;-72
2023/05/29 07:18:52;;;;;;;41.47;5.85;;;;;;;;;;5014578;28;20494;-73
2023/05/29 07:21:20;;;;;;;34.83;5.78;;;;;;;;;;5017168;28;20026;-72
2023/05/29 07:23:46;;;;;;;38.70;6.65;;;;;;;;;;5014465;28;20468;-72
2023/05/29 07:26:12;;;;;;;31.25;5.80;;;;;;;;;;5018608;28;20037;-72
2023/05/29 07:28:38;;;;;;;43.05;6.65;;;;;;;;;;5012969;28;20022;-71
2023/05/29 07:31:04;;;;;;;38.53;6.90;;;;;;;;;;5012963;28;20018;-71
2023/05/29 07:33:30;;;;;;;47.55;6.53;;;;;;;;;;5012016;28;20041;-72
2023/05/29 07:35:56;;;;;;;38.70;6.18;;;;;;;;;;5012429;28;20026;-72
2023/05/29 07:38:22;;;;;;;32.47;6.20;;;;;;;;;;5012270;28;20025;-71
2023/05/29 07:40:48;;;;;;;39.00;6.15;;;;;;;;;;5012895;28;20026;-72
2023/05/29 07:43:14;;;;;;;30.25;5.50;;;;;;;;;;5012872;28;20507;-72
2023/05/29 07:45:40;;;;;;;38.72;6.35;;;;;;;;;;5011674;28;20022;-72
2023/05/29 07:48:06;;;;;;;36.28;5.25;;;;;;;;;;5012017;28;20030;-76
2023/05/29 07:50:32;;;;;;;33.35;5.72;;;;;;;;;;5013218;28;20018;-72
2023/05/29 07:53:00;;;;;;;28.83;5.15;;;;;;;;;;5012516;28;20025;-71
2023/05/29 07:55:26;;;;;;;30.85;5.40;;;;;;;;;;5012606;28;20509;-71
2023/05/29 07:57:52;;;;;;;29.63;5.30;;;;;;;;;;5011966;28;20101;-72
2023/05/29 08:00:18;;;;;;;32.72;6.05;;;;;;;;;;5011854;28;20541;-72
2023/05/29 08:02:44;;;;;;;31.45;5.80;;;;;;;;;;5011413;28;20037;-72
2023/05/29 08:05:10;;;;;;;30.75;5.45;;;;;;;;;;5012012;28;20077;-73
2023/05/29 08:07:37;;;;;;;29.08;5.30;;;;;;;;;;5011541;28;20026;-72
2023/05/29 08:10:05;;;;;;;28.30;5.00;;;;;;;;;;5011723;28;20029;-73
2023/05/29 08:12:31;;;;;;;34.33;5.10;;;;;;;;;;5011502;28;20022;-72
2023/05/29 08:14:57;;;;;;;33.42;5.18;;;;;;;;;;5011791;28;20022;-71
2023/05/29 08:17:23;;;;;;;28.33;5.45;;;;;;;;;;5011544;28;20034;-72
2023/05/29 08:19:49;;;;;;;30.17;5.50;;;;;;;;;;5012040;28;20022;-73
2023/05/29 08:22:15;;;;;;;33.70;5.72;;;;;;;;;;5011764;28;20066;-72
2023/05/29 08:24:41;;;;;;;38.03;5.65;;;;;;;;;;5012262;28;20018;-72
2023/05/29 08:27:07;;;;;;;26.60;4.85;;;;;;;;;;5013967;28;20085;-72
2023/05/29 08:29:33;;;;;;;30.00;5.20;;;;;;;;;;5012561;28;20026;-71
2023/05/29 08:31:59;;;;;;;29.25;4.93;;;;;;;;;;5011560;28;20088;-72
2023/05/29 08:34:25;;;;;;;37.97;6.45;;;;;;;;;;5011311;28;20101;-73
2023/05/29 08:36:51;;;;;;;31.05;5.85;;;;;;;;;;5011656;28;20533;-72
2023/05/29 08:39:17;;;;;;;29.73;6.63;;;;;;;;;;5011414;28;20084;-72
2023/05/29 08:41:52;;;;;;;34.15;5.65;;;;;;;;;;5011568;28;20026;-72
2023/05/29 08:44:21;;;;;;;29.13;5.22;;;;;;;;;;5011970;28;20056;-72
2023/05/29 08:46:48;;;;;;;27.77;5.18;;;;;;;;;;5012070;28;20475;-73
2023/05/29 08:49:16;;;;;;;24.08;4.65;;;;;;;;;;5012365;28;20033;-72
2023/05/29 08:51:45;;;;;;;29.30;5.90;;;;;;;;;;5012634;28;20018;-71
2023/05/29 08:54:12;;;;;;;28.50;5.35;;;;;;;;;;5011827;28;20065;-72
2023/05/29 08:56:38;;;;;;;28.10;5.53;;;;;;;;;;5012323;28;20563;-72
2023/05/29 08:59:04;;;;;;;34.75;5.43;;;;;;;;;;5014762;28;20100;-72
2023/05/29 09:01:30;;;;;;;30.70;5.10;;;;;;;;;;5014940;28;20097;-72
2023/05/29 09:03:56;;;;;;;29.23;5.30;;;;;;;;;;5014588;28;20546;-71
2023/05/29 09:06:25;;;;;;;36.35;6.65;;;;;;;;;;5015397;28;20026;-72
2023/05/29 09:08:52;;;;;;;26.85;6.00;;;;;;;;;;5015440;28;20013;-72
2023/05/29 09:11:18;;;;;;;21.10;4.53;;;;;;;;;;5014510;28;20037;-72
2023/05/29 09:13:44;;;;;;;24.67;4.90;;;;;;;;;;5016321;28;20498;-73
2023/05/29 09:16:10;;;;;;;27.63;5.30;;;;;;;;;;5014812;28;20026;-73
2023/05/29 09:18:37;;;;;;;24.77;5.25;;;;;;;;;;5013825;28;20461;-71
2023/05/29 09:21:10;;;;;;;34.28;5.30;;;;;;;;;;5014833;28;20030;-71
2023/05/29 09:23:36;;;;;;;23.98;5.28;;;;;;;;;;5014489;28;20109;-73
2023/05/29 09:26:03;;;;;;;25.83;5.00;;;;;;;;;;5015119;28;20033;-72
2023/05/29 09:28:31;;;;;;;33.53;5.38;;;;;;;;;;5014580;28;20046;-71
2023/05/29 09:30:57;;;;;;;27.90;5.95;;;;;;;;;;5014399;28;20148;-70
2023/05/29 09:33:26;;;;;;;35.58;5.85;;;;;;;;;;5014132;28;20479;-72
2023/05/29 09:35:52;;;;;;;28.95;5.32;;;;;;;;;;5014318;28;20065;-73
2023/05/29 09:38:18;;;;;;;32.25;5.18;;;;;;;;;;5014172;28;20430;-72
2023/05/29 09:40:48;;;;;;;27.20;5.20;;;;;;;;;;5014329;28;20034;-72
2023/05/29 09:43:17;;;;;;;33.78;5.72;;;;;;;;;;5013769;28;20034;-72
2023/05/29 09:45:44;;;;;;;29.52;5.57;;;;;;;;;;5014456;28;20057;-72
2023/05/29 09:48:18;;;;;;;27.98;5.15;;;;;;;;;;5014016;28;20089;-72
2023/05/29 09:50:47;;;;;;;26.92;5.10;;;;;;;;;;5013867;28;20026;-71
2023/05/29 09:53:18;;;;;;;31.27;6.45;;;;;;;;;;5013677;28;20105;-72
2023/05/29 09:55:46;;;;;;;31.17;5.20;;;;;;;;;;5014315;28;20029;-71
2023/05/29 09:58:13;;;;;;;24.80;4.85;;;;;;;;;;5016519;28;20034;-72
2023/05/29 10:00:40;;;;;;;25.25;5.38;;;;;;;;;;5017827;28;20076;-72
2023/05/29 10:03:06;;;;;;;25.83;5.60;;;;;;;;;;5015976;28;20070;-71
2023/05/29 10:05:32;;;;;;;26.70;5.20;;;;;;;;;;5014118;28;20084;-74
2023/05/29 10:08:01;;;;;;;31.90;5.60;;;;;;;;;;5012879;28;20050;-72
2023/05/29 10:10:28;;;;;;;28.98;5.22;;;;;;;;;;5014150;28;20108;-72
2023/05/29 10:12:54;;;;;;;25.23;5.15;;;;;;;;;;5013447;28;20124;-72
2023/05/29 10:15:21;;;;;;;18.48;4.15;;;;;;;;;;5013423;28;20030;-73
2023/05/29 10:17:57;;;;;;;18.83;4.50;;;;;;;;;;5013523;28;20025;-70
2023/05/29 10:20:23;;;;;;;23.02;4.57;;;;;;;;;;5013379;28;20096;-73
2023/05/29 10:22:51;;;;;;;21.88;5.05;;;;;;;;;;5011711;28;20038;-72
2023/05/29 10:25:20;;;;;;;17.77;4.20;;;;;;;;;;5012929;28;20411;-72
2023/05/29 10:27:46;;;;;;;23.08;4.90;;;;;;;;;;5013600;28;20038;-73
2023/05/29 10:30:17;;;;;;;19.80;4.50;;;;;;;;;;5013034;28;20030;-73
2023/05/29 10:32:50;;;;;;;22.35;5.20;;;;;;;;;;5012918;28;20034;-73
2023/05/29 10:35:18;;;;;;;22.38;5.25;;;;;;;;;;5013255;28;20045;-72
2023/05/29 10:37:53;;;;;;;23.63;4.90;;;;;;;;;;5014855;28;20100;-73
2023/05/29 10:40:19;;;;;;;;;;;;;;;;;;5013950;28;20028;-72
2023/05/29 10:42:45;;;;;;;29.48;5.85;;;;;;;;;;5014390;28;20375;-78
2023/05/29 10:45:14;;;;;;;30.98;6.35;;;;;;;;;;5012529;28;20030;-72
2023/05/29 10:47:40;;;;;;;23.75;5.72;;;;;;;;;;5013386;28;20491;-74
2023/05/29 10:50:07;;;;;;;21.02;4.95;;;;;;;;;;5013279;28;20032;-72
2023/05/29 10:52:33;;;;;;;27.15;4.70;;;;;;;;;;5014018;28;20029;-72
2023/05/29 10:55:00;;;;;;;26.08;4.85;;;;;;;;;;5018735;28;20022;-73
2023/05/29 10:57:26;;;;;;;15.25;4.43;;;;;;;;;;5017322;28;20106;-72
2023/05/29 11:00:23;;;;;;;21.70;5.72;;;;;;;;;;5013363;28;20025;-72
2023/05/29 11:02:49;;;;;;;24.17;5.85;;;;;;;;;;5014744;28;20036;-73
2023/05/29 11:05:19;;;;;;;24.95;5.65;;;;;;;;;;5014624;28;20522;-71
2023/05/29 11:08:12;;;;;;;20.45;4.90;;;;;;;;;;5012872;28;20018;-71
2023/05/29 11:10:47;;;;;;;21.13;4.85;;;;;;;;;;5009961;28;20551;-72
2023/05/29 11:13:26;;;;;;;22.77;4.60;;;;;;;;;;5012370;28;20402;-72
2023/05/29 11:16:12;;;;;;;21.23;4.18;;;;;;;;;;5012963;28;20025;-72
2023/05/29 11:18:42;;;;;;;20.52;3.85;;;;;;;;;;5012648;28;20382;-72
2023/05/29 11:21:16;;;;;;;25.65;4.50;;;;;;;;;;5012312;28;20037;-71
2023/05/29 11:23:43;;;;;;;14.70;4.00;;;;;;;;;;5012309;28;20030;-72
2023/05/29 11:26:09;;;;;;;17.48;4.00;;;;;;;;;;5012244;28;20507;-72
2023/05/29 11:28:36;;;;;;;21.45;4.57;;;;;;;;;;5012423;28;20431;-73
2023/05/29 11:31:04;;;;;;;17.05;4.05;;;;;;;;;;5015625;28;20029;-72
2023/05/29 11:33:31;;;;;;;20.58;4.05;;;;;;;;;;5014124;28;20029;-73
2023/05/29 11:36:01;;;;;;;23.52;4.53;;;;;;;;;;5016401;28;20108;-74
2023/05/29 11:38:27;;;;;;;17.40;4.13;;;;;;;;;;5011630;28;20117;-74
2023/05/29 11:40:57;;;;;;;17.92;4.13;;;;;;;;;;5017219;28;20051;-73
2023/05/29 11:43:24;;;;;;;14.30;4.05;;;;;;;;;;5017223;28;20511;-74
2023/05/29 11:45:50;;;;;;;20.38;4.30;;;;;;;;;;5017974;28;20034;-72
2023/05/29 11:48:16;;;;;;;19.08;4.30;;;;;;;;;;5013734;28;20026;-72
2023/05/29 11:50:43;;;;;;;26.38;4.28;;;;;;;;;;5016717;28;20100;-73
2023/05/29 11:53:10;;;;;;;18.60;3.95;;;;;;;;;;5015825;28;20026;-74
2023/05/29 11:55:36;;;;;;;18.85;4.15;;;;;;;;;;5017121;28;20108;-73
2023/05/29 11:58:03;;;;;;;19.45;4.35;;;;;;;;;;5015678;28;20654;-72
2023/05/29 12:00:50;;;;;;;19.50;4.07;;;;;;;;;;5012194;28;20029;-72
2023/05/29 12:03:16;;;;;;;22.90;4.18;;;;;;;;;;5011792;28;20018;-75
2023/05/29 12:05:48;;;;;;;29.95;5.47;;;;;;;;;;5013271;28;20073;-76
2023/05/29 12:08:14;;;;;;;21.05;4.53;;;;;;;;;;5012954;28;20125;-76
2023/05/29 12:10:47;;;;;;;18.25;3.88;;;;;;;;;;5012444;28;20157;-76
2023/05/29 12:13:16;;;;;;;16.40;3.90;;;;;;;;;;5012601;28;20030;-76
2023/05/29 12:15:42;;;;;;;15.05;3.85;;;;;;;;;;5014119;28;20022;-75
2023/05/29 12:18:09;;;;;;;15.60;3.85;;;;;;;;;;5013388;28;20050;-73
2023/05/29 12:20:35;;;;;;;17.27;3.88;;;;;;;;;;5014145;28;20037;-73
2023/05/29 12:23:02;;;;;;;16.83;3.90;;;;;;;;;;5013039;28;20072;-73
2023/05/29 12:25:28;;;;;;;14.02;3.90;;;;;;;;;;5013324;28;20097;-74
2023/05/29 12:27:57;;;;;;;19.50;4.00;;;;;;;;;;5011529;28;20068;-73
2023/05/29 12:30:23;;;;;;;21.25;4.47;;;;;;;;;;5011510;28;20483;-73
2023/05/29 12:32:54;;;;;;;15.07;3.97;;;;;;;;;;5014040;28;20045;-72
2023/05/29 12:35:29;;;;;;;18.67;4.15;;;;;;;;;;5015372;28;20034;-73
2023/05/29 12:37:57;;;;;;;15.35;3.75;;;;;;;;;;5015487;28;20077;-73
2023/05/29 12:40:27;;;;;;;17.55;4.28;;;;;;;;;;5015109;28;20034;-73
2023/05/29 12:42:57;;;;;;;15.60;3.85;;;;;;;;;;5014788;28;20036;-72
2023/05/29 12:45:26;;;;;;;20.65;4.72;;;;;;;;;;5015329;28;20499;-73
2023/05/29 12:47:54;;;;;;;19.30;3.90;;;;;;;;;;5015139;28;20029;-73
2023/05/29 12:50:20;;;;;;;14.70;3.88;;;;;;;;;;5015303;28;20503;-72
2023/05/29 12:52:46;;;;;;;14.65;3.53;;;;;;;;;;5015734;28;20026;-73
2023/05/29 12:55:12;;;;;;;16.95;3.88;;;;;;;;;;5014808;28;20036;-73
2023/05/29 12:57:39;;;;;;;21.88;4.15;;;;;;;;;;5015018;28;20088;-72
2023/05/29 13:00:06;;;;;;;16.92;4.22;;;;;;;;;;5014903;28;20026;-73
2023/05/29 13:02:32;;;;;;;16.35;3.70;;;;;;;;;;5014762;28;20387;-73
2023/05/29 13:04:58;;;;;;;14.63;3.75;;;;;;;;;;5015141;28;20022;-73
2023/05/29 13:07:27;;;;;;;14.23;3.40;;;;;;;;;;5011984;28;20465;-74
2023/05/29 13:09:53;;;;;;;13.68;3.90;;;;;;;;;;5014482;28;20025;-74
2023/05/29 13:12:19;;;;;;;19.73;4.22;;;;;;;;;;5014562;28;20109;-74
2023/05/29 13:14:45;;;;;;;16.08;3.92;;;;;;;;;;5015195;28;20052;-73
2023/05/29 13:17:11;;;;;;;16.25;3.80;;;;;;;;;;5019126;28;20071;-74
2023/05/29 13:19:37;;;;;;;18.55;3.95;;;;;;;;;;5033289;28;20390;-74
2023/05/29 13:22:03;;;;;;;18.70;4.20;;;;;;;;;;5032997;28;20029;-73
2023/05/29 13:24:29;;;;;;;14.50;3.90;;;;;;;;;;5033949;28;20021;-72
2023/05/29 13:26:55;;;;;;;14.95;3.42;;;;;;;;;;5033712;28;20033;-73
2023/05/29 13:29:21;;;;;;;10.43;3.10;;;;;;;;;;5034177;28;20067;-73
2023/05/29 13:31:47;;;;;;;17.13;3.58;;;;;;;;;;5019492;28;20030;-74
2023/05/29 13:34:13;;;;;;;12.23;3.30;;;;;;;;;;5014696;28;20017;-73
2023/05/29 13:36:39;;;;;;;14.77;3.30;;;;;;;;;;5014449;28;20044;-73
2023/05/29 13:39:06;;;;;;;18.45;3.95;;;;;;;;;;5013604;28;20052;-74
2023/05/29 13:41:32;;;;;;;14.52;3.60;;;;;;;;;;5013991;28;20061;-74
2023/05/29 13:43:58;;;;;;;21.33;4.75;;;;;;;;;;5017342;28;20030;-79
2023/05/29 13:46:24;;;;;;;15.80;3.65;;;;;;;;;;5013193;28;20033;-73
2023/05/29 13:48:50;;;;;;;18.50;4.00;;;;;;;;;;5013775;28;20459;-74
2023/05/29 13:51:16;;;;;;;17.10;3.65;;;;;;;;;;5014175;28;20026;-74
2023/05/29 13:53:42;;;;;;;18.42;3.90;;;;;;;;;;5021302;28;20095;-73
2023/05/29 13:56:08;;;;;;;15.15;3.63;;;;;;;;;;5022262;28;20479;-74
2023/05/29 13:58:34;;;;;;;16.52;3.63;;;;;;;;;;5020619;28;20033;-78
2023/05/29 14:01:00;;;;;;;14.70;3.63;;;;;;;;;;5018442;28;20088;-77
2023/05/29 14:03:28;;;;;;;13.85;4.00;;;;;;;;;;5014997;28;20168;-77
2023/05/29 14:05:54;;;;;;;12.77;3.55;;;;;;;;;;5016226;28;20027;-76
2023/05/29 14:08:20;;;;;;;14.70;3.25;;;;;;;;;;5015605;28;20084;-79
2023/05/29 14:10:46;;;;;;;13.20;3.78;;;;;;;;;;5015476;28;20040;-78
2023/05/29 14:13:12;;;;;;;14.75;3.95;;;;;;;;;;5015619;28;20026;-79
2023/05/29 14:15:38;;;;;;;12.55;4.03;;;;;;;;;;5014720;28;20456;-78
2023/05/29 14:18:05;;;;;;;14.82;3.28;;;;;;;;;;5014896;28;20084;-77
2023/05/29 14:20:31;;;;;;;17.05;3.15;;;;;;;;;;5015721;28;20057;-75
2023/05/29 14:22:57;;;;;;;19.15;4.25;;;;;;;;;;5014969;28;20034;-78
2023/05/29 14:25:23;;;;;;;16.70;4.32;;;;;;;;;;5014389;28;20057;-78
2023/05/29 14:27:49;;;;;;;12.45;3.28;;;;;;;;;;5016569;28;20030;-77
2023/05/29 14:30:15;;;;;;;14.90;4.80;;;;;;;;;;5014995;28;20026;-77